createdAt,value
2023-05-14T00:00:33.365Z,12.04
2023-05-14T00:01:33.452Z,12.00
2023-05-14T00:02:33.771Z,11.87
2023-05-14T00:03:33.898Z,11.77
2023-05-14T00:04:33.199Z,11.75
2023-05-14T00:05:33.314Z,11.66
2023-05-14T00:06:32.522Z,11.62
2023-05-14T00:07:32.691Z,11.63
2023-05-14T00:08:32.914Z,11.60
2023-05-14T00:09:33.173Z,11.62
2023-05-14T00:10:32.370Z,11.60
2023-05-14T00:11:32.527Z,11.57
2023-05-14T00:12:32.779Z,11.57
2023-05-14T00:13:33.969Z,11.60
2023-05-14T00:14:33.168Z,11.54
2023-05-14T00:15:34.234Z,11.53
2023-05-14T00:16:32.627Z,11.51
2023-05-14T00:17:32.772Z,11.51
2023-05-14T00:18:33.032Z,11.53
2023-05-14T00:19:33.192Z,11.54
2023-05-14T00:20:32.352Z,11.53
2023-05-14T00:21:32.527Z,11.54
2023-05-14T00:22:32.952Z,11.59
2023-05-14T00:23:32.958Z,11.59
2023-05-14T00:24:33.169Z,11.57
2023-05-14T00:25:32.388Z,11.59
2023-05-14T00:26:33.558Z,11.56
2023-05-14T00:27:32.771Z,11.56
2023-05-14T00:28:33.259Z,11.51
2023-05-14T00:29:32.148Z,11.51
2023-05-14T00:30:33.308Z,11.49
2023-05-14T00:31:33.618Z,11.48
2023-05-14T00:32:32.779Z,11.48
2023-05-14T00:33:33.953Z,11.45
2023-05-14T00:34:32.169Z,11.46
2023-05-14T00:35:33.283Z,11.49
2023-05-14T00:36:32.572Z,11.46
2023-05-14T00:37:32.751Z,11.45
2023-05-14T00:38:32.963Z,11.44
2023-05-14T00:39:32.101Z,11.44
2023-05-14T00:40:33.937Z,11.41
2023-05-14T00:41:32.497Z,11.36
2023-05-14T00:42:32.854Z,11.31
2023-05-14T00:43:31.881Z,11.30
2023-05-14T00:44:32.083Z,11.31
2023-05-14T00:45:32.285Z,11.20
2023-05-14T00:46:32.618Z,11.16
2023-05-14T00:47:32.703Z,11.11
2023-05-14T00:48:31.848Z,11.05
2023-05-14T00:49:33.014Z,11.06
2023-05-14T00:50:33.303Z,11.01
2023-05-14T00:51:32.470Z,10.99
2023-05-14T00:52:32.698Z,10.91
2023-05-14T00:53:31.869Z,10.91
2023-05-14T00:54:32.999Z,10.90
2023-05-14T00:55:32.323Z,10.88
2023-05-14T00:56:33.409Z,10.86
2023-05-14T00:57:33.670Z,10.83
2023-05-14T00:58:31.897Z,10.78
2023-05-14T00:59:33.038Z,10.80
2023-05-14T01:00:32.244Z,10.76
2023-05-14T01:01:33.496Z,10.81
2023-05-14T01:02:31.735Z,10.84
2023-05-14T01:03:32.853Z,10.81
2023-05-14T01:04:32.103Z,10.84
2023-05-14T01:05:32.278Z,10.87
2023-05-14T01:06:32.508Z,10.88
2023-05-14T01:07:31.649Z,10.88
2023-05-14T01:08:31.881Z,10.86
2023-05-14T01:09:32.096Z,10.84
2023-05-14T01:10:32.319Z,10.86
2023-05-14T01:11:31.493Z,10.83
2023-05-14T01:12:31.726Z,10.86
2023-05-14T01:13:31.907Z,10.86
2023-05-14T01:14:32.166Z,10.84
2023-05-14T01:15:32.361Z,10.83
2023-05-14T01:16:32.544Z,10.84
2023-05-14T01:17:32.708Z,10.86
2023-05-14T01:18:32.904Z,10.86
2023-05-14T01:19:32.152Z,10.87
2023-05-14T01:20:32.392Z,10.84
2023-05-14T01:21:32.482Z,10.86
2023-05-14T01:22:31.797Z,10.83
2023-05-14T01:23:31.977Z,10.81
2023-05-14T01:24:32.197Z,10.78
2023-05-14T01:25:31.387Z,10.75
2023-05-14T01:26:31.667Z,10.70
2023-05-14T01:27:31.804Z,10.68
2023-05-14T01:28:32.028Z,10.69
2023-05-14T01:29:32.264Z,10.66
2023-05-14T01:30:32.468Z,10.65
2023-05-14T01:31:31.686Z,10.62
2023-05-14T01:32:32.816Z,10.58
2023-05-14T01:33:32.101Z,10.57
2023-05-14T01:34:32.231Z,10.55
2023-05-14T01:35:31.591Z,10.57
2023-05-14T01:36:32.700Z,10.55
2023-05-14T01:37:31.923Z,10.57
2023-05-14T01:38:31.135Z,10.54
2023-05-14T01:39:31.355Z,10.54
2023-05-14T01:40:31.570Z,10.51
2023-05-14T01:41:31.820Z,10.52
2023-05-14T01:42:32.025Z,10.52
2023-05-14T01:43:31.251Z,10.51
2023-05-14T01:44:31.394Z,10.52
2023-05-14T01:45:31.653Z,10.52
2023-05-14T01:46:31.979Z,10.57
2023-05-14T01:47:32.067Z,10.58
2023-05-14T01:48:31.298Z,10.58
2023-05-14T01:49:32.368Z,10.58
2023-05-14T01:50:31.602Z,10.62
2023-05-14T01:51:31.843Z,10.65
2023-05-14T01:52:31.055Z,10.65
2023-05-14T01:53:31.202Z,10.68
2023-05-14T01:54:31.439Z,10.68
2023-05-14T01:55:31.638Z,10.69
2023-05-14T01:56:31.827Z,10.68
2023-05-14T01:57:30.977Z,10.65
2023-05-14T01:58:31.262Z,10.63
2023-05-14T01:59:32.401Z,10.65
2023-05-14T02:00:32.732Z,10.65
2023-05-14T02:01:30.896Z,10.63
2023-05-14T02:02:32.001Z,10.63
2023-05-14T02:03:31.229Z,10.60
2023-05-14T02:04:31.671Z,10.57
2023-05-14T02:05:31.679Z,10.55
2023-05-14T02:06:31.900Z,10.54
2023-05-14T02:07:31.102Z,10.52
2023-05-14T02:08:32.285Z,10.51
2023-05-14T02:09:31.580Z,10.51
2023-05-14T02:10:30.887Z,10.51
2023-05-14T02:11:31.014Z,10.58
2023-05-14T02:12:31.297Z,10.47
2023-05-14T02:13:31.454Z,10.47
2023-05-14T02:14:31.619Z,10.46
2023-05-14T02:15:31.216Z,10.44
2023-05-14T02:16:31.105Z,10.43
2023-05-14T02:17:31.302Z,10.42
2023-05-14T02:18:32.445Z,10.42
2023-05-14T02:19:31.541Z,10.42
2023-05-14T02:20:31.786Z,10.39
2023-05-14T02:21:31.050Z,10.38
2023-05-14T02:22:32.206Z,10.38
2023-05-14T02:23:40.996Z,10.38
2023-05-14T02:24:31.655Z,10.38
2023-05-14T02:25:31.839Z,10.39
2023-05-14T02:26:31.077Z,10.39
2023-05-14T02:27:31.436Z,10.43
2023-05-14T02:28:30.516Z,10.39
2023-05-14T02:29:30.700Z,10.38
2023-05-14T02:30:31.915Z,10.38
2023-05-14T02:31:31.248Z,10.35
2023-05-14T02:32:31.593Z,10.35
2023-05-14T02:33:31.620Z,10.31
2023-05-14T02:34:31.823Z,10.26
2023-05-14T02:35:31.962Z,10.25
2023-05-14T02:36:31.245Z,10.24
2023-05-14T02:37:30.422Z,10.24
2023-05-14T02:38:31.659Z,10.20
2023-05-14T02:39:30.866Z,10.17
2023-05-14T02:40:32.080Z,10.16
2023-05-14T02:41:31.248Z,10.16
2023-05-14T02:42:30.535Z,10.14
2023-05-14T02:43:31.740Z,10.13
2023-05-14T02:44:31.968Z,10.14
2023-05-14T02:45:32.207Z,10.13
2023-05-14T02:46:31.534Z,10.11
2023-05-14T02:47:30.751Z,10.11
2023-05-14T02:48:31.059Z,10.11
2023-05-14T02:49:32.137Z,10.11
2023-05-14T02:50:30.457Z,10.10
2023-05-14T02:51:30.662Z,10.07
2023-05-14T02:52:30.922Z,10.07
2023-05-14T02:53:32.138Z,10.06
2023-05-14T02:54:30.433Z,10.02
2023-05-14T02:55:30.533Z,9.99
2023-05-14T02:56:30.806Z,9.99
2023-05-14T02:57:31.009Z,9.99
2023-05-14T02:58:31.232Z,9.96
2023-05-14T02:59:30.493Z,9.96
2023-05-14T03:00:30.670Z,9.95
2023-05-14T03:01:31.894Z,9.95
2023-05-14T03:02:31.154Z,9.92
2023-05-14T03:03:30.338Z,9.96
2023-05-14T03:04:30.613Z,9.96
2023-05-14T03:05:30.766Z,9.99
2023-05-14T03:06:30.919Z,9.99
2023-05-14T03:07:30.185Z,10.01
2023-05-14T03:08:30.439Z,10.02
2023-05-14T03:09:30.647Z,10.02
2023-05-14T03:10:30.927Z,10.02
2023-05-14T03:11:30.046Z,10.04
2023-05-14T03:12:31.225Z,10.06
2023-05-14T03:13:31.454Z,10.07
2023-05-14T03:14:30.750Z,10.06
2023-05-14T03:15:30.972Z,10.07
2023-05-14T03:16:30.256Z,10.04
2023-05-14T03:17:31.360Z,10.04
2023-05-14T03:18:31.604Z,10.02
2023-05-14T03:19:30.746Z,10.02
2023-05-14T03:20:31.092Z,10.02
2023-05-14T03:21:30.334Z,10.04
2023-05-14T03:22:31.479Z,10.02
2023-05-14T03:23:31.693Z,10.06
2023-05-14T03:24:30.869Z,10.06
2023-05-14T03:25:31.069Z,10.06
2023-05-14T03:26:30.393Z,10.09
2023-05-14T03:27:30.591Z,10.10
2023-05-14T03:28:29.750Z,10.10
2023-05-14T03:29:29.960Z,10.13
2023-05-14T03:30:30.247Z,10.10
2023-05-14T03:31:31.405Z,10.10
2023-05-14T03:32:30.736Z,10.07
2023-05-14T03:33:29.794Z,10.07
2023-05-14T03:34:30.996Z,10.06
2023-05-14T03:35:31.206Z,10.07
2023-05-14T03:36:30.462Z,10.06
2023-05-14T03:37:30.616Z,10.09
2023-05-14T03:38:29.903Z,10.11
2023-05-14T03:39:30.073Z,10.14
2023-05-14T03:40:30.317Z,10.16
2023-05-14T03:41:30.482Z,10.14
2023-05-14T03:42:30.672Z,10.13
2023-05-14T03:43:29.941Z,10.14
2023-05-14T03:44:30.147Z,10.17
2023-05-14T03:45:31.346Z,10.14
2023-05-14T03:46:31.560Z,10.11
2023-05-14T03:47:30.760Z,10.11
2023-05-14T03:48:31.005Z,10.10
2023-05-14T03:49:30.291Z,10.13
2023-05-14T03:50:29.402Z,10.13
2023-05-14T03:51:29.692Z,10.13
2023-05-14T03:52:29.856Z,10.16
2023-05-14T03:53:30.097Z,10.11
2023-05-14T03:54:30.413Z,10.13
2023-05-14T03:55:29.476Z,10.11
2023-05-14T03:56:29.786Z,10.11
2023-05-14T03:57:29.911Z,10.07
2023-05-14T03:58:30.131Z,10.06
2023-05-14T03:59:29.435Z,10.02
2023-05-14T04:00:29.539Z,10.01
2023-05-14T04:01:30.764Z,9.99
2023-05-14T04:02:30.028Z,9.99
2023-05-14T04:03:31.589Z,10.02
2023-05-14T04:04:30.395Z,9.98
2023-05-14T04:05:29.782Z,9.96
2023-05-14T04:06:30.829Z,9.98
2023-05-14T04:07:30.025Z,9.96
2023-05-14T04:08:30.176Z,9.93
2023-05-14T04:09:30.418Z,9.88
2023-05-14T04:10:30.682Z,9.88
2023-05-14T04:11:29.942Z,9.91
2023-05-14T04:12:30.071Z,9.86
2023-05-14T04:13:30.193Z,9.85
2023-05-14T04:14:30.383Z,9.83
2023-05-14T04:15:29.688Z,9.77
2023-05-14T04:16:30.845Z,9.75
2023-05-14T04:17:29.080Z,9.73
2023-05-14T04:18:29.384Z,9.71
2023-05-14T04:19:29.462Z,9.75
2023-05-14T04:20:29.725Z,9.74
2023-05-14T04:21:29.865Z,9.75
2023-05-14T04:22:29.064Z,9.74
2023-05-14T04:23:30.242Z,9.70
2023-05-14T04:24:30.454Z,9.67
2023-05-14T04:25:29.707Z,9.65
2023-05-14T04:26:29.927Z,9.60
2023-05-14T04:27:29.106Z,9.63
2023-05-14T04:28:29.390Z,9.63
2023-05-14T04:29:30.491Z,9.63
2023-05-14T04:30:30.735Z,9.67
2023-05-14T04:31:29.940Z,9.70
2023-05-14T04:32:30.114Z,9.73
2023-05-14T04:33:30.327Z,9.71
2023-05-14T04:34:30.619Z,9.73
2023-05-14T04:35:28.760Z,9.74
2023-05-14T04:36:29.113Z,9.75
2023-05-14T04:37:29.226Z,9.73
2023-05-14T04:38:30.398Z,9.70
2023-05-14T04:39:29.744Z,9.71
2023-05-14T04:40:29.811Z,9.71
2023-05-14T04:41:30.053Z,9.81
2023-05-14T04:42:30.303Z,9.85
2023-05-14T04:43:30.492Z,9.86
2023-05-14T04:44:29.660Z,9.86
2023-05-14T04:45:30.867Z,9.86
2023-05-14T04:46:30.223Z,9.85
2023-05-14T04:47:30.400Z,9.83
2023-05-14T04:48:30.472Z,9.85
2023-05-14T04:49:29.691Z,9.88
2023-05-14T04:50:29.902Z,9.91
2023-05-14T04:51:30.089Z,9.93
2023-05-14T04:52:30.270Z,9.95
2023-05-14T04:53:29.520Z,9.98
2023-05-14T04:54:28.831Z,9.95
2023-05-14T04:55:29.922Z,9.93
2023-05-14T04:56:30.222Z,9.92
2023-05-14T04:57:30.366Z,9.91
2023-05-14T04:58:29.558Z,9.91
2023-05-14T04:59:29.786Z,9.96
2023-05-14T05:00:29.040Z,10.02
2023-05-14T05:01:30.255Z,10.04
2023-05-14T05:02:28.473Z,10.06
2023-05-14T05:03:29.774Z,10.09
2023-05-14T05:04:28.852Z,10.10
2023-05-14T05:05:29.089Z,10.09
2023-05-14T05:06:30.273Z,10.10
2023-05-14T05:07:28.534Z,10.11
2023-05-14T05:08:28.736Z,10.13
2023-05-14T05:09:28.991Z,10.13
2023-05-14T05:10:30.169Z,10.14
2023-05-14T05:11:28.373Z,10.14
2023-05-14T05:12:29.588Z,10.18
2023-05-14T05:13:28.904Z,10.20
2023-05-14T05:14:30.057Z,10.22
2023-05-14T05:15:29.267Z,10.25
2023-05-14T05:16:29.687Z,10.26
2023-05-14T05:17:29.669Z,10.31
2023-05-14T05:18:28.916Z,10.34
2023-05-14T05:19:39.697Z,10.36
2023-05-14T05:20:29.237Z,10.42
2023-05-14T05:21:29.438Z,10.46
2023-05-14T05:22:28.671Z,10.47
2023-05-14T05:23:28.868Z,10.54
2023-05-14T05:24:29.075Z,10.57
2023-05-14T05:25:29.913Z,10.60
2023-05-14T05:26:29.428Z,10.66
2023-05-14T05:27:28.673Z,10.69
2023-05-14T05:28:29.882Z,10.73
2023-05-14T05:29:30.062Z,10.78
2023-05-14T05:30:29.229Z,10.81
2023-05-14T05:31:28.564Z,10.84
2023-05-14T05:32:29.674Z,10.86
2023-05-14T05:33:28.844Z,10.87
2023-05-14T05:34:28.101Z,10.88
2023-05-14T05:35:29.188Z,10.93
2023-05-14T05:36:28.451Z,10.94
2023-05-14T05:37:28.722Z,10.98
2023-05-14T05:38:28.846Z,11.01
2023-05-14T05:39:30.108Z,11.02
2023-05-14T05:40:28.297Z,11.03
2023-05-14T05:41:28.642Z,11.05
2023-05-14T05:42:28.620Z,11.08
2023-05-14T05:43:28.823Z,11.11
2023-05-14T05:44:27.958Z,11.16
2023-05-14T05:45:28.275Z,11.19
2023-05-14T05:46:28.388Z,11.21
2023-05-14T05:47:29.556Z,11.24
2023-05-14T05:48:29.737Z,11.27
2023-05-14T05:49:28.008Z,11.28
2023-05-14T05:50:28.162Z,11.31
2023-05-14T05:51:29.388Z,11.31
2023-05-14T05:52:29.594Z,11.38
2023-05-14T05:53:28.724Z,11.44
2023-05-14T05:54:28.894Z,11.48
2023-05-14T05:55:29.138Z,11.49
2023-05-14T05:56:29.348Z,11.54
2023-05-14T05:57:28.581Z,11.56
2023-05-14T05:58:27.753Z,11.54
2023-05-14T05:59:27.958Z,11.51
2023-05-14T06:00:29.278Z,11.54
2023-05-14T06:01:28.364Z,11.57
2023-05-14T06:02:28.712Z,11.57
2023-05-14T06:03:28.723Z,11.62
2023-05-14T06:04:28.917Z,11.63
2023-05-14T06:05:29.149Z,11.64
2023-05-14T06:06:29.436Z,11.66
2023-05-14T06:07:29.568Z,11.70
2023-05-14T06:08:28.637Z,11.70
2023-05-14T06:09:28.845Z,11.77
2023-05-14T06:10:28.187Z,11.77
2023-05-14T06:11:29.271Z,11.81
2023-05-14T06:12:29.481Z,11.84
2023-05-14T06:13:28.590Z,11.82
2023-05-14T06:14:27.820Z,11.85
2023-05-14T06:15:29.047Z,11.88
2023-05-14T06:16:29.233Z,11.93
2023-05-14T06:17:29.423Z,11.94
2023-05-14T06:18:27.662Z,11.97
2023-05-14T06:19:27.798Z,11.98
2023-05-14T06:20:29.015Z,12.01
2023-05-14T06:21:29.432Z,12.07
2023-05-14T06:22:28.414Z,12.12
2023-05-14T06:23:28.531Z,12.13
2023-05-14T06:24:27.789Z,12.18
2023-05-14T06:25:29.018Z,12.22
2023-05-14T06:26:28.098Z,12.30
2023-05-14T06:27:29.299Z,12.31
2023-05-14T06:28:28.465Z,12.34
2023-05-14T06:29:27.767Z,12.38
2023-05-14T06:30:29.353Z,12.41
2023-05-14T06:31:29.038Z,12.46
2023-05-14T06:32:29.271Z,12.44
2023-05-14T06:33:28.385Z,12.44
2023-05-14T06:34:28.571Z,12.44
2023-05-14T06:35:27.772Z,12.49
2023-05-14T06:36:28.006Z,12.49
2023-05-14T06:37:29.145Z,12.49
2023-05-14T06:38:27.290Z,12.51
2023-05-14T06:39:28.558Z,12.44
2023-05-14T06:40:27.758Z,12.43
2023-05-14T06:41:28.866Z,12.41
2023-05-14T06:42:29.182Z,12.37
2023-05-14T06:43:28.282Z,12.46
2023-05-14T06:44:28.404Z,12.48
2023-05-14T06:45:28.627Z,12.49
2023-05-14T06:46:27.844Z,12.52
2023-05-14T06:47:29.051Z,12.56
2023-05-14T06:48:27.360Z,12.63
2023-05-14T06:49:28.420Z,12.67
2023-05-14T06:50:28.653Z,12.71
2023-05-14T06:51:28.816Z,12.76
2023-05-14T06:52:28.026Z,12.80
2023-05-14T06:53:28.196Z,12.84
2023-05-14T06:54:28.491Z,12.91
2023-05-14T06:55:28.655Z,12.94
2023-05-14T06:56:27.874Z,12.98
2023-05-14T06:57:27.979Z,13.03
2023-05-14T06:58:28.135Z,13.09
2023-05-14T06:59:27.366Z,13.12
2023-05-14T07:00:27.573Z,13.19
2023-05-14T07:01:27.829Z,13.24
2023-05-14T07:02:28.948Z,13.28
2023-05-14T07:03:26.991Z,13.29
2023-05-14T07:04:28.163Z,13.32
2023-05-14T07:05:28.352Z,13.36
2023-05-14T07:06:27.694Z,13.44
2023-05-14T07:07:28.694Z,13.48
2023-05-14T07:08:26.890Z,13.54
2023-05-14T07:09:27.070Z,13.59
2023-05-14T07:10:28.269Z,13.63
2023-05-14T07:11:28.334Z,13.66
2023-05-14T07:12:28.625Z,13.72
2023-05-14T07:13:28.274Z,13.79
2023-05-14T07:14:26.921Z,13.84
2023-05-14T07:15:27.105Z,13.86
2023-05-14T07:16:27.348Z,13.91
2023-05-14T07:17:27.843Z,13.96
2023-05-14T07:18:27.778Z,13.98
2023-05-14T07:19:26.959Z,13.96
2023-05-14T07:20:27.976Z,13.99
2023-05-14T07:21:27.179Z,14.04
2023-05-14T07:22:27.341Z,14.06
2023-05-14T07:23:27.505Z,14.09
2023-05-14T07:24:26.828Z,14.13
2023-05-14T07:25:26.845Z,14.16
2023-05-14T07:26:28.025Z,14.16
2023-05-14T07:27:28.197Z,14.17
2023-05-14T07:28:27.521Z,14.19
2023-05-14T07:29:27.539Z,14.21
2023-05-14T07:30:26.989Z,14.24
2023-05-14T07:31:27.952Z,14.27
2023-05-14T07:32:28.106Z,14.31
2023-05-14T07:33:28.271Z,14.34
2023-05-14T07:34:26.489Z,14.34
2023-05-14T07:35:26.631Z,14.35
2023-05-14T07:36:27.811Z,14.36
2023-05-14T07:37:27.972Z,14.42
2023-05-14T07:38:28.175Z,14.46
2023-05-14T07:39:27.324Z,14.48
2023-05-14T07:40:26.724Z,14.52
2023-05-14T07:41:27.664Z,14.53
2023-05-14T07:42:35.872Z,14.56
2023-05-14T07:43:27.967Z,14.60
2023-05-14T07:44:28.072Z,14.61
2023-05-14T07:45:27.272Z,14.66
2023-05-14T07:46:26.406Z,14.63
2023-05-14T07:47:26.706Z,14.64
2023-05-14T07:48:27.822Z,14.64
2023-05-14T07:49:26.940Z,14.63
2023-05-14T07:50:27.092Z,14.60
2023-05-14T07:51:27.205Z,14.60
2023-05-14T07:52:26.341Z,14.64
2023-05-14T07:53:27.493Z,14.64
2023-05-14T07:54:27.682Z,14.67
2023-05-14T07:55:27.749Z,14.71
2023-05-14T07:56:27.990Z,14.74
2023-05-14T07:57:27.082Z,14.75
2023-05-14T07:58:26.245Z,14.80
2023-05-14T07:59:27.464Z,14.85
2023-05-14T08:00:27.569Z,14.91
2023-05-14T08:01:27.687Z,14.95
2023-05-14T08:02:26.890Z,15.00
2023-05-14T08:03:28.107Z,14.98
2023-05-14T08:04:26.165Z,15.00
2023-05-14T08:05:26.285Z,15.05
2023-05-14T08:06:28.035Z,15.09
2023-05-14T08:07:26.565Z,15.01
2023-05-14T08:08:26.703Z,15.19
2023-05-14T08:09:26.924Z,15.23
2023-05-14T08:10:26.296Z,15.31
2023-05-14T08:11:26.220Z,15.37
2023-05-14T08:12:27.384Z,15.40
2023-05-14T08:13:26.449Z,15.43
2023-05-14T08:14:26.695Z,15.46
2023-05-14T08:15:28.065Z,15.44
2023-05-14T08:16:25.902Z,15.51
2023-05-14T08:17:26.067Z,15.51
2023-05-14T08:18:26.221Z,15.55
2023-05-14T08:19:27.416Z,15.62
2023-05-14T08:20:27.640Z,15.62
2023-05-14T08:21:26.588Z,15.66
2023-05-14T08:22:26.748Z,15.67
2023-05-14T08:23:25.908Z,15.73
2023-05-14T08:24:26.020Z,15.80
2023-05-14T08:25:26.138Z,15.88
2023-05-14T08:26:26.434Z,15.91
2023-05-14T08:27:26.564Z,15.95
2023-05-14T08:28:27.583Z,16.01
2023-05-14T08:29:26.788Z,16.07
2023-05-14T08:30:26.222Z,16.08
2023-05-14T08:31:26.094Z,16.14
2023-05-14T08:32:26.214Z,16.18
2023-05-14T08:33:27.321Z,16.27
2023-05-14T08:34:26.519Z,16.33
2023-05-14T08:35:25.756Z,16.44
2023-05-14T08:36:25.810Z,16.41
2023-05-14T08:37:26.946Z,16.44
2023-05-14T08:38:26.149Z,16.44
2023-05-14T08:39:26.258Z,16.45
2023-05-14T08:40:26.799Z,16.42
2023-05-14T08:41:25.551Z,16.34
2023-05-14T08:42:25.782Z,16.32
2023-05-14T08:43:25.876Z,16.26
2023-05-14T08:44:26.046Z,16.27
2023-05-14T08:45:26.170Z,16.32
2023-05-14T08:46:26.366Z,16.36
2023-05-14T08:47:27.461Z,16.41
2023-05-14T08:48:25.647Z,16.51
2023-05-14T08:49:25.680Z,16.57
2023-05-14T08:50:25.981Z,16.65
2023-05-14T08:51:25.983Z,16.73
2023-05-14T08:52:26.089Z,16.82
2023-05-14T08:53:26.244Z,16.92
2023-05-14T08:54:26.365Z,16.99
2023-05-14T08:55:27.457Z,17.06
2023-05-14T08:56:25.618Z,17.10
2023-05-14T08:57:25.735Z,17.14
2023-05-14T08:58:25.964Z,17.15
2023-05-14T08:59:26.030Z,17.17
2023-05-14T09:00:26.406Z,17.20
2023-05-14T09:01:27.351Z,17.20
2023-05-14T09:02:26.529Z,17.17
2023-05-14T09:03:25.719Z,17.17
2023-05-14T09:04:25.730Z,17.18
2023-05-14T09:05:25.855Z,17.17
2023-05-14T09:06:26.011Z,17.06
2023-05-14T09:07:26.052Z,17.07
2023-05-14T09:08:26.220Z,17.07
2023-05-14T09:09:25.308Z,17.07
2023-05-14T09:10:25.868Z,17.07
2023-05-14T09:11:25.678Z,17.15
2023-05-14T09:12:26.357Z,17.21
2023-05-14T09:13:28.124Z,17.36
2023-05-14T09:14:26.168Z,17.39
2023-05-14T09:15:37.165Z,17.43
2023-05-14T09:16:25.290Z,17.42
2023-05-14T09:17:25.480Z,17.46
2023-05-14T09:18:25.569Z,17.53
2023-05-14T09:19:25.769Z,17.60
2023-05-14T09:20:26.209Z,17.68
2023-05-14T09:21:26.090Z,17.63
2023-05-14T09:22:25.130Z,17.51
2023-05-14T09:23:25.302Z,17.51
2023-05-14T09:24:25.410Z,17.45
2023-05-14T09:25:25.595Z,17.45
2023-05-14T09:26:25.747Z,17.46
2023-05-14T09:27:25.919Z,17.43
2023-05-14T09:28:25.089Z,17.46
2023-05-14T09:29:25.972Z,17.49
2023-05-14T09:30:26.423Z,17.47
2023-05-14T09:31:26.490Z,17.55
2023-05-14T09:32:25.659Z,17.62
2023-05-14T09:33:26.147Z,17.51
2023-05-14T09:34:25.935Z,17.43
2023-05-14T09:35:26.193Z,17.38
2023-05-14T09:36:25.309Z,17.30
2023-05-14T09:37:25.649Z,17.25
2023-05-14T09:38:25.828Z,17.18
2023-05-14T09:39:25.047Z,17.10
2023-05-14T09:40:27.293Z,17.07
2023-05-14T09:41:26.237Z,17.12
2023-05-14T09:42:25.484Z,17.18
2023-05-14T09:43:25.636Z,17.14
2023-05-14T09:44:24.791Z,17.14
2023-05-14T09:45:25.073Z,17.10
2023-05-14T09:46:25.185Z,17.03
2023-05-14T09:47:25.509Z,17.00
2023-05-14T09:48:25.685Z,16.98
2023-05-14T09:49:26.773Z,16.96
2023-05-14T09:50:26.112Z,16.95
2023-05-14T09:51:25.205Z,16.96
2023-05-14T09:52:26.197Z,16.99
2023-05-14T09:53:25.375Z,17.02
2023-05-14T09:54:25.585Z,17.09
2023-05-14T09:55:24.712Z,17.24
2023-05-14T09:56:24.882Z,17.39
2023-05-14T09:57:25.116Z,17.55
2023-05-14T09:58:25.285Z,17.57
2023-05-14T09:59:25.419Z,17.79
2023-05-14T10:00:24.793Z,17.86
2023-05-14T10:01:28.848Z,17.96
2023-05-14T10:02:24.904Z,18.07
2023-05-14T10:03:25.117Z,18.16
2023-05-14T10:04:25.267Z,18.17
2023-05-14T10:05:25.585Z,18.21
2023-05-14T10:06:24.566Z,18.26
2023-05-14T10:07:24.740Z,18.32
2023-05-14T10:08:24.882Z,18.39
2023-05-14T10:09:25.124Z,18.38
2023-05-14T10:10:25.527Z,18.28
2023-05-14T10:11:25.341Z,18.41
2023-05-14T10:12:24.401Z,18.47
2023-05-14T10:13:24.534Z,18.54
2023-05-14T10:14:24.703Z,18.57
2023-05-14T10:15:25.061Z,18.69
2023-05-14T10:16:25.059Z,18.82
2023-05-14T10:17:25.156Z,18.89
2023-05-14T10:18:25.238Z,18.93
2023-05-14T10:19:24.466Z,18.97
2023-05-14T10:20:24.934Z,19.02
2023-05-14T10:21:24.952Z,19.12
2023-05-14T10:22:24.758Z,19.17
2023-05-14T10:23:24.944Z,19.23
2023-05-14T10:24:26.018Z,19.30
2023-05-14T10:25:25.182Z,19.35
2023-05-14T10:26:24.314Z,19.45
2023-05-14T10:27:24.575Z,19.50
2023-05-14T10:28:24.639Z,19.62
2023-05-14T10:29:24.748Z,19.78
2023-05-14T10:30:26.202Z,19.86
2023-05-14T10:31:25.996Z,19.85
2023-05-14T10:32:25.185Z,19.83
2023-05-14T10:33:25.417Z,19.87
2023-05-14T10:34:25.400Z,19.86
2023-05-14T10:35:24.672Z,19.79
2023-05-14T10:36:24.688Z,19.68
2023-05-14T10:37:24.917Z,19.67
2023-05-14T10:38:24.940Z,19.68
2023-05-14T10:39:24.075Z,19.60
2023-05-14T10:40:24.701Z,19.34
2023-05-14T10:41:25.305Z,19.25
2023-05-14T10:42:24.548Z,19.06
2023-05-14T10:43:25.610Z,18.94
2023-05-14T10:44:24.899Z,18.91
2023-05-14T10:45:23.974Z,19.05
2023-05-14T10:46:24.149Z,19.21
2023-05-14T10:47:24.291Z,19.34
2023-05-14T10:48:24.447Z,19.55
2023-05-14T10:49:39.814Z,19.76
2023-05-14T10:50:25.981Z,19.89
2023-05-14T10:51:25.861Z,20.00
2023-05-14T10:52:23.931Z,20.12
2023-05-14T10:53:25.084Z,20.27
2023-05-14T10:54:25.187Z,20.38
2023-05-14T10:55:25.312Z,20.44
2023-05-14T10:56:24.494Z,20.51
2023-05-14T10:57:24.608Z,20.60
2023-05-14T10:58:24.724Z,20.72
2023-05-14T10:59:23.856Z,20.87
2023-05-14T11:00:25.131Z,20.98
2023-05-14T11:01:24.172Z,21.08
2023-05-14T11:02:24.313Z,21.15
2023-05-14T11:03:25.328Z,21.24
2023-05-14T11:04:25.418Z,21.26
2023-05-14T11:05:25.574Z,21.26
2023-05-14T11:06:24.675Z,21.18
2023-05-14T11:07:23.885Z,21.22
2023-05-14T11:08:27.021Z,21.33
2023-05-14T11:09:24.125Z,21.49
2023-05-14T11:10:24.440Z,21.53
2023-05-14T11:11:24.361Z,21.46
2023-05-14T11:12:24.502Z,21.31
2023-05-14T11:13:24.737Z,21.19
2023-05-14T11:14:25.644Z,21.09
2023-05-14T11:15:24.840Z,21.05
2023-05-14T11:16:24.278Z,21.01
2023-05-14T11:17:25.067Z,21.06
2023-05-14T11:18:24.209Z,21.08
2023-05-14T11:19:24.358Z,21.01
2023-05-14T11:20:25.725Z,20.94
2023-05-14T11:21:24.575Z,20.85
2023-05-14T11:22:24.665Z,20.71
2023-05-14T11:23:24.817Z,20.56
2023-05-14T11:24:24.936Z,20.34
2023-05-14T11:25:24.222Z,20.20
2023-05-14T11:26:25.318Z,20.10
2023-05-14T11:27:23.418Z,20.02
2023-05-14T11:28:23.503Z,20.00
2023-05-14T11:29:23.654Z,19.98
2023-05-14T11:30:24.022Z,19.80
2023-05-14T11:31:24.058Z,19.71
2023-05-14T11:32:25.126Z,19.58
2023-05-14T11:33:24.238Z,19.52
2023-05-14T11:34:23.355Z,19.46
2023-05-14T11:35:24.518Z,19.46
2023-05-14T11:36:23.713Z,19.53
2023-05-14T11:37:23.886Z,19.65
2023-05-14T11:38:23.972Z,19.82
2023-05-14T11:39:24.134Z,20.00
2023-05-14T11:40:23.474Z,20.17
2023-05-14T11:41:23.567Z,20.23
2023-05-14T11:42:23.492Z,20.22
2023-05-14T11:43:23.821Z,20.38
2023-05-14T11:44:23.787Z,20.51
2023-05-14T11:45:23.952Z,20.68
2023-05-14T11:46:25.013Z,20.73
2023-05-14T11:47:24.071Z,20.90
2023-05-14T11:48:23.226Z,20.94
2023-05-14T11:49:23.429Z,21.08
2023-05-14T11:50:24.819Z,21.19
2023-05-14T11:51:24.581Z,21.34
2023-05-14T11:52:23.716Z,21.46
2023-05-14T11:53:23.847Z,21.40
2023-05-14T11:54:24.036Z,21.26
2023-05-14T11:55:23.095Z,21.08
2023-05-14T11:56:23.211Z,21.00
2023-05-14T11:57:24.277Z,20.93
2023-05-14T11:58:23.471Z,20.83
2023-05-14T11:59:23.596Z,20.66
2023-05-14T12:00:24.070Z,20.50
2023-05-14T12:01:24.811Z,20.23
2023-05-14T12:02:24.074Z,19.89
2023-05-14T12:03:23.342Z,19.80
2023-05-14T12:04:23.242Z,19.70
2023-05-14T12:05:23.336Z,19.71
2023-05-14T12:06:23.534Z,19.70
2023-05-14T12:07:23.620Z,19.70
2023-05-14T12:08:23.766Z,19.61
2023-05-14T12:09:22.857Z,19.58
2023-05-14T12:10:23.182Z,19.55
2023-05-14T12:11:23.093Z,19.50
2023-05-14T12:12:23.320Z,19.47
2023-05-14T12:13:23.484Z,19.28
2023-05-14T12:14:23.539Z,19.21
2023-05-14T12:15:23.733Z,19.12
2023-05-14T12:16:22.907Z,19.09
2023-05-14T12:17:23.018Z,19.06
2023-05-14T12:18:24.990Z,19.12
2023-05-14T12:19:23.349Z,19.09
2023-05-14T12:20:23.648Z,19.07
2023-05-14T12:21:23.525Z,19.02
2023-05-14T12:22:22.665Z,19.01
2023-05-14T12:23:22.814Z,19.05
2023-05-14T12:24:23.064Z,18.99
2023-05-14T12:25:23.158Z,18.94
2023-05-14T12:26:23.321Z,18.91
2023-05-14T12:27:23.489Z,18.93
2023-05-14T12:28:22.560Z,18.93
2023-05-14T12:29:23.659Z,18.89
2023-05-14T12:30:23.020Z,18.86
2023-05-14T12:31:23.034Z,18.83
2023-05-14T12:32:24.130Z,18.82
2023-05-14T12:33:24.303Z,18.83
2023-05-14T12:34:23.462Z,18.84
2023-05-14T12:35:23.143Z,18.84
2023-05-14T12:36:22.857Z,18.83
2023-05-14T12:37:22.901Z,18.82
2023-05-14T12:38:24.009Z,18.83
2023-05-14T12:39:23.141Z,18.96
2023-05-14T12:40:23.421Z,18.99
2023-05-14T12:41:25.078Z,19.10
2023-05-14T12:42:23.505Z,19.31
2023-05-14T12:43:22.661Z,19.55
2023-05-14T12:44:22.819Z,19.67
2023-05-14T12:45:23.227Z,19.78
2023-05-14T12:46:23.150Z,19.85
2023-05-14T12:47:23.333Z,19.87
2023-05-14T12:48:22.374Z,19.90
2023-05-14T12:49:22.505Z,20.04
2023-05-14T12:50:23.799Z,20.15
2023-05-14T12:51:23.717Z,20.35
2023-05-14T12:52:36.814Z,20.41
2023-05-14T12:53:24.065Z,20.50
2023-05-14T12:54:23.148Z,20.54